createdAt,value
2022-10-12T00:00:14.524Z,84.47
2022-10-12T00:01:19.032Z,84.50
2022-10-12T00:02:23.370Z,84.60
2022-10-12T00:03:26.320Z,84.47
2022-10-12T00:04:30.322Z,84.52
2022-10-12T00:05:33.264Z,84.46
2022-10-12T00:06:37.189Z,84.32
2022-10-12T00:07:40.487Z,84.32
2022-10-12T00:08:45.483Z,84.21
2022-10-12T00:09:48.465Z,84.21
2022-10-12T00:10:52.480Z,84.09
2022-10-12T00:11:56.864Z,84.12
2022-10-12T00:13:01.097Z,83.89
2022-10-12T00:14:04.414Z,84.19
2022-10-12T00:15:09.145Z,84.17
2022-10-12T00:16:13.364Z,84.32
2022-10-12T00:17:17.450Z,84.16
2022-10-12T00:18:20.493Z,84.09
2022-10-12T00:19:24.437Z,83.81
2022-10-12T00:20:27.383Z,84.06
2022-10-12T00:21:32.057Z,84.17
2022-10-12T00:22:34.994Z,84.05
2022-10-12T00:23:39.571Z,84.32
2022-10-12T00:24:43.047Z,84.40
2022-10-12T00:25:47.165Z,84.56
2022-10-12T00:26:50.563Z,84.29
2022-10-12T00:27:55.985Z,84.43
2022-10-12T00:29:00.778Z,84.50
2022-10-12T00:30:05.195Z,84.49
2022-10-12T00:31:09.697Z,84.52
2022-10-12T00:32:13.665Z,84.24
2022-10-12T00:33:16.692Z,84.36
2022-10-12T00:34:20.717Z,84.23
2022-10-12T00:35:23.664Z,84.16
2022-10-12T00:36:29.206Z,84.43
2022-10-12T00:37:32.095Z,84.51
2022-10-12T00:38:36.113Z,84.53
2022-10-12T00:39:39.065Z,84.69
2022-10-12T00:40:43.103Z,84.59
2022-10-12T00:41:47.086Z,84.96
2022-10-12T00:42:50.086Z,85.00
2022-10-12T00:43:58.527Z,85.02
2022-10-12T00:45:01.828Z,84.66
2022-10-12T00:46:08.504Z,84.69
2022-10-12T00:47:22.535Z,84.87
2022-10-12T00:48:26.576Z,85.08
2022-10-12T00:49:29.714Z,84.98
2022-10-12T00:50:35.615Z,84.79
2022-10-12T00:51:39.144Z,84.76
2022-10-12T00:52:46.492Z,84.87
2022-10-12T00:53:52.613Z,84.84
2022-10-12T00:54:57.295Z,84.54
2022-10-12T00:56:01.315Z,84.44
2022-10-12T00:57:06.783Z,84.45
2022-10-12T00:58:09.840Z,84.51
2022-10-12T00:59:19.216Z,84.61
2022-10-12T01:00:23.025Z,84.34
2022-10-12T01:01:27.168Z,84.38
2022-10-12T01:02:31.027Z,83.94
2022-10-12T01:03:35.349Z,84.38
2022-10-12T01:04:38.776Z,84.83
2022-10-12T01:05:42.996Z,85.01
2022-10-12T01:06:45.987Z,84.70
2022-10-12T01:07:50.076Z,84.89
2022-10-12T01:08:55.100Z,84.76
2022-10-12T01:09:59.077Z,84.86
2022-10-12T01:11:02.049Z,84.88
2022-10-12T01:12:07.157Z,85.13
2022-10-12T01:13:10.283Z,85.14
2022-10-12T01:14:15.892Z,85.13
2022-10-12T01:15:19.236Z,85.10
2022-10-12T01:16:26.447Z,85.12
2022-10-12T01:17:36.429Z,85.06
2022-10-12T01:18:45.657Z,85.06
2022-10-12T01:20:07.105Z,85.17
2022-10-12T01:21:17.993Z,85.09
2022-10-12T01:22:22.657Z,85.12
2022-10-12T01:24:07.866Z,85.26
2022-10-12T01:25:22.527Z,85.28
2022-10-12T01:26:54.774Z,84.67
2022-10-12T01:28:02.362Z,85.08
2022-10-12T01:29:20.237Z,84.99
2022-10-12T01:30:27.267Z,85.19
2022-10-12T01:31:36.701Z,85.24
2022-10-12T01:32:48.496Z,84.92
2022-10-12T01:33:54.359Z,85.12
2022-10-12T01:35:01.294Z,85.22
2022-10-12T01:36:08.902Z,85.38
2022-10-12T01:37:16.045Z,85.18
2022-10-12T01:38:26.394Z,84.89
2022-10-12T01:39:32.655Z,84.80
2022-10-12T01:40:39.121Z,85.05
2022-10-12T01:41:45.547Z,85.12
2022-10-12T01:42:50.074Z,85.05
2022-10-12T01:43:54.674Z,85.09
2022-10-12T01:45:04.919Z,85.17
2022-10-12T01:46:42.192Z,85.50
2022-10-12T01:47:49.791Z,85.29
2022-10-12T01:48:55.084Z,84.75
2022-10-12T01:49:59.309Z,84.89
2022-10-12T01:51:03.514Z,85.01
2022-10-12T01:52:37.496Z,85.18
2022-10-12T01:53:45.063Z,85.03
2022-10-12T01:54:59.337Z,85.27
2022-10-12T01:56:08.539Z,85.06
2022-10-12T01:57:18.243Z,84.97
2022-10-12T01:58:35.264Z,84.96
2022-10-12T01:59:43.967Z,84.75
2022-10-12T02:00:54.220Z,84.93
2022-10-12T02:01:59.232Z,84.92
2022-10-12T02:03:11.275Z,85.26
2022-10-12T02:04:19.346Z,85.43
2022-10-12T02:05:28.857Z,85.41
2022-10-12T02:06:37.535Z,85.72
2022-10-12T02:07:43.814Z,85.68
2022-10-12T02:08:51.534Z,85.58
2022-10-12T02:09:56.484Z,85.49
2022-10-12T02:11:05.215Z,85.58
2022-10-12T02:12:12.845Z,85.52
2022-10-12T02:13:17.173Z,85.43
2022-10-12T02:14:22.356Z,85.35
2022-10-12T02:15:28.078Z,85.62
2022-10-12T02:16:34.395Z,85.36
2022-10-12T02:17:39.291Z,85.44
2022-10-12T02:18:47.369Z,85.24
2022-10-12T02:19:54.885Z,85.15
2022-10-12T02:20:59.334Z,84.99
2022-10-12T02:22:05.968Z,84.83
2022-10-12T02:23:08.953Z,85.04
2022-10-12T02:24:13.405Z,85.29
2022-10-12T02:25:18.366Z,85.46
2022-10-12T02:26:23.253Z,85.77
2022-10-12T02:27:27.347Z,85.40
2022-10-12T02:28:32.471Z,85.33
2022-10-12T02:29:37.766Z,85.45
2022-10-12T02:30:51.526Z,85.13
2022-10-12T02:31:57.553Z,85.03
2022-10-12T02:33:07.831Z,85.11
2022-10-12T02:34:15.973Z,85.23
2022-10-12T02:35:25.867Z,85.00
2022-10-12T02:36:35.093Z,84.93
2022-10-12T02:37:42.156Z,85.33
2022-10-12T02:38:49.006Z,85.17
2022-10-12T02:39:55.647Z,85.42
2022-10-12T02:41:01.695Z,85.24
2022-10-12T02:42:09.225Z,85.21
2022-10-12T02:43:14.643Z,85.34
2022-10-12T02:44:22.102Z,85.46
2022-10-12T02:45:25.565Z,85.39
2022-10-12T02:46:30.613Z,85.36
2022-10-12T02:47:34.496Z,85.40
2022-10-12T02:48:40.657Z,85.27
2022-10-12T02:49:46.372Z,85.22
2022-10-12T02:50:52.735Z,85.51
2022-10-12T02:51:56.336Z,85.38
2022-10-12T02:53:00.540Z,85.69
2022-10-12T02:54:04.108Z,85.70
2022-10-12T02:55:08.645Z,85.45
2022-10-12T02:56:13.287Z,85.36
2022-10-12T02:57:17.532Z,85.23
2022-10-12T02:58:20.885Z,85.12
2022-10-12T02:59:25.063Z,85.15
2022-10-12T03:00:27.964Z,85.33
2022-10-12T03:01:31.967Z,85.35
2022-10-12T03:02:36.003Z,85.35
2022-10-12T03:03:39.394Z,85.30
2022-10-12T03:04:43.485Z,85.07
2022-10-12T03:05:47.827Z,85.32
2022-10-12T03:06:51.894Z,85.15
2022-10-12T03:07:54.847Z,85.03
2022-10-12T03:08:58.871Z,85.11
2022-10-12T03:10:01.697Z,85.12
2022-10-12T03:11:05.918Z,85.13
2022-10-12T03:12:08.864Z,85.14
2022-10-12T03:13:12.806Z,84.96
2022-10-12T03:14:16.986Z,85.18
2022-10-12T03:15:20.886Z,84.93
2022-10-12T03:16:24.896Z,84.86
2022-10-12T03:17:28.794Z,84.95
2022-10-12T03:18:31.935Z,84.91
2022-10-12T03:19:35.905Z,84.93
2022-10-12T03:20:38.803Z,84.62
2022-10-12T03:21:44.225Z,84.36
2022-10-12T03:22:48.322Z,84.70
2022-10-12T03:23:51.224Z,84.56
2022-10-12T03:24:55.266Z,84.82
2022-10-12T03:25:58.255Z,85.04
2022-10-12T03:27:02.374Z,85.04
2022-10-12T03:28:05.456Z,85.43
2022-10-12T03:29:09.836Z,84.96
2022-10-12T03:30:13.595Z,85.52
2022-10-12T03:31:18.221Z,85.10
2022-10-12T03:32:21.272Z,85.32
2022-10-12T03:33:25.513Z,85.00
2022-10-12T03:34:28.448Z,85.07
2022-10-12T03:35:32.446Z,85.21
2022-10-12T03:36:36.443Z,85.53
2022-10-12T03:37:41.104Z,85.70
2022-10-12T03:38:45.331Z,85.90
2022-10-12T03:39:48.213Z,85.56
2022-10-12T03:40:52.143Z,85.19
2022-10-12T03:41:55.125Z,85.04
2022-10-12T03:42:59.125Z,84.95
2022-10-12T03:44:02.184Z,85.21
2022-10-12T03:45:06.885Z,85.27
2022-10-12T03:46:09.784Z,85.53
2022-10-12T03:47:13.796Z,85.82
2022-10-12T03:48:16.755Z,85.58
2022-10-12T03:49:20.825Z,85.55
2022-10-12T03:50:23.773Z,85.63
2022-10-12T03:51:27.835Z,85.64
2022-10-12T03:52:30.760Z,85.87
2022-10-12T03:53:36.162Z,85.59
2022-10-12T03:54:39.043Z,85.28
2022-10-12T03:55:43.106Z,85.55
2022-10-12T03:56:46.015Z,85.53
2022-10-12T03:57:49.944Z,85.23
2022-10-12T03:58:52.875Z,85.54
2022-10-12T03:59:56.774Z,85.28
2022-10-12T04:00:59.694Z,85.15
2022-10-12T04:02:03.698Z,85.17
2022-10-12T04:03:06.662Z,85.08
2022-10-12T04:04:11.763Z,85.20
2022-10-12T04:05:14.777Z,85.02
2022-10-12T04:06:18.923Z,84.79
2022-10-12T04:07:21.815Z,84.96
2022-10-12T04:08:26.979Z,84.78
2022-10-12T04:09:31.318Z,85.13
2022-10-12T04:10:36.116Z,84.90
2022-10-12T04:11:39.049Z,84.96
2022-10-12T04:12:43.057Z,84.87
2022-10-12T04:13:46.002Z,85.10
2022-10-12T04:14:50.061Z,85.46
2022-10-12T04:15:52.954Z,85.29
2022-10-12T04:16:56.955Z,84.98
2022-10-12T04:17:59.855Z,85.04
2022-10-12T04:19:03.782Z,85.03
2022-10-12T04:20:07.681Z,85.13
2022-10-12T04:21:14.891Z,85.30
2022-10-12T04:22:17.846Z,84.83
2022-10-12T04:23:21.790Z,85.09
2022-10-12T04:24:24.756Z,85.37
2022-10-12T04:25:30.481Z,85.38
2022-10-12T04:26:34.567Z,85.56
2022-10-12T04:27:37.621Z,85.43
2022-10-12T04:28:41.909Z,85.57
2022-10-12T04:29:44.884Z,85.18
2022-10-12T04:30:48.903Z,85.38
2022-10-12T04:31:51.856Z,85.31
2022-10-12T04:32:55.814Z,85.28
2022-10-12T04:33:58.735Z,85.42
2022-10-12T04:35:02.686Z,85.40
2022-10-12T04:36:05.910Z,85.46
2022-10-12T04:37:09.857Z,85.74
2022-10-12T04:38:13.336Z,85.46
2022-10-12T04:39:17.341Z,85.41
2022-10-12T04:40:20.288Z,85.24
2022-10-12T04:41:25.753Z,85.04
2022-10-12T04:42:28.742Z,85.38
2022-10-12T04:43:32.774Z,85.19
2022-10-12T04:44:35.754Z,85.56
2022-10-12T04:45:39.766Z,85.26
2022-10-12T04:46:42.649Z,85.27
2022-10-12T04:47:46.563Z,85.69
2022-10-12T04:48:49.519Z,85.21
2022-10-12T04:49:53.516Z,85.36
2022-10-12T04:50:56.467Z,85.51
2022-10-12T04:52:00.458Z,85.54
2022-10-12T04:53:03.497Z,85.44
2022-10-12T04:54:07.607Z,85.60
2022-10-12T04:55:10.528Z,85.64
2022-10-12T04:56:14.457Z,85.60
2022-10-12T04:57:18.836Z,85.47
2022-10-12T04:58:22.740Z,85.63
2022-10-12T04:59:25.813Z,85.39
2022-10-12T05:00:29.847Z,85.62
2022-10-12T05:01:32.811Z,85.47
2022-10-12T05:02:36.855Z,85.51
2022-10-12T05:03:42.119Z,85.27
2022-10-12T05:04:46.322Z,85.39
2022-10-12T05:05:50.333Z,85.27
2022-10-12T05:06:53.304Z,85.49
2022-10-12T05:07:57.257Z,85.31
2022-10-12T05:09:00.152Z,85.35
2022-10-12T05:10:04.104Z,85.44
2022-10-12T05:11:07.002Z,85.27
2022-10-12T05:12:11.056Z,85.75
2022-10-12T05:13:15.704Z,85.67
2022-10-12T05:14:19.756Z,85.79
2022-10-12T05:15:22.694Z,85.47
2022-10-12T05:16:26.775Z,85.79
2022-10-12T05:17:29.626Z,86.19
2022-10-12T05:18:33.645Z,85.94
2022-10-12T05:19:36.586Z,85.82
2022-10-12T05:20:40.534Z,85.76
2022-10-12T05:21:43.432Z,86.20
2022-10-12T05:22:47.443Z,86.15
2022-10-12T05:23:51.344Z,86.21
2022-10-12T05:24:55.332Z,86.51
2022-10-12T05:25:58.268Z,86.61
2022-10-12T05:27:03.216Z,86.78
2022-10-12T05:28:07.077Z,86.73
2022-10-12T05:29:12.555Z,86.76
2022-10-12T05:30:15.709Z,86.82
2022-10-12T05:31:20.067Z,86.85
2022-10-12T05:32:23.194Z,86.86
2022-10-12T05:33:27.244Z,86.91
2022-10-12T05:34:30.327Z,87.00
2022-10-12T05:35:34.314Z,86.99
2022-10-12T05:36:37.655Z,87.01
2022-10-12T05:37:41.692Z,87.02
2022-10-12T05:38:44.641Z,87.07
2022-10-12T05:39:49.995Z,87.40
2022-10-12T05:40:57.704Z,87.63
2022-10-12T05:42:04.445Z,87.83
2022-10-12T05:43:07.401Z,87.82
2022-10-12T05:44:12.913Z,87.89
2022-10-12T05:45:15.949Z,88.02
2022-10-12T05:46:20.033Z,88.12
2022-10-12T05:47:23.025Z,87.94
2022-10-12T05:48:27.368Z,87.93
2022-10-12T05:49:31.056Z,88.38
2022-10-12T05:50:35.006Z,88.39
2022-10-12T05:51:38.973Z,88.52
2022-10-12T05:52:42.844Z,88.82
2022-10-12T05:53:45.764Z,89.20
2022-10-12T05:54:49.775Z,89.21
2022-10-12T05:55:54.207Z,89.40
2022-10-12T05:56:58.141Z,89.58
2022-10-12T05:58:01.053Z,90.08
2022-10-12T05:59:05.309Z,90.34
2022-10-12T06:00:10.876Z,90.36
2022-10-12T06:01:15.266Z,89.64
2022-10-12T06:02:19.326Z,89.18
2022-10-12T06:03:26.266Z,89.30
2022-10-12T06:04:30.494Z,89.80
2022-10-12T06:05:33.396Z,89.88
2022-10-12T06:06:37.447Z,90.57
2022-10-12T06:07:40.415Z,90.47
2022-10-12T06:08:44.455Z,90.99
2022-10-12T06:09:49.265Z,91.25
2022-10-12T06:10:54.175Z,91.45
2022-10-12T06:11:57.157Z,91.58
2022-10-12T06:13:01.086Z,91.24
2022-10-12T06:14:05.255Z,91.02
2022-10-12T06:15:10.845Z,90.55
2022-10-12T06:16:14.943Z,90.57
2022-10-12T06:17:17.940Z,90.76
2022-10-12T06:18:22.123Z,90.56
2022-10-12T06:19:25.052Z,90.31
2022-10-12T06:20:29.001Z,90.70
2022-10-12T06:21:34.218Z,90.38
2022-10-12T06:22:38.789Z,90.32
2022-10-12T06:23:42.043Z,90.32
2022-10-12T06:24:46.014Z,90.78
2022-10-12T06:25:49.856Z,91.32
2022-10-12T06:26:53.756Z,91.54
2022-10-12T06:27:56.794Z,91.81
2022-10-12T06:29:01.061Z,91.66
2022-10-12T06:30:04.897Z,91.84
2022-10-12T06:31:10.766Z,91.75
2022-10-12T06:32:13.678Z,92.29
2022-10-12T06:33:17.722Z,92.59
2022-10-12T06:34:21.153Z,92.22
2022-10-12T06:35:25.123Z,92.32
2022-10-12T06:36:28.062Z,92.27
2022-10-12T06:37:49.162Z,92.41
2022-10-12T06:38:54.018Z,92.16
2022-10-12T06:39:57.860Z,92.45
2022-10-12T06:41:01.845Z,92.32
2022-10-12T06:42:05.873Z,92.52
2022-10-12T06:43:08.836Z,92.47
2022-10-12T06:44:12.826Z,92.24
2022-10-12T06:45:16.282Z,92.13
2022-10-12T06:46:21.660Z,92.12
2022-10-12T06:47:25.705Z,92.23
2022-10-12T06:48:29.113Z,92.39
2022-10-12T06:49:33.055Z,93.08
2022-10-12T06:50:36.441Z,93.58
2022-10-12T06:51:40.392Z,93.79
2022-10-12T06:52:43.923Z,93.49
2022-10-12T06:53:47.955Z,93.61
2022-10-12T06:54:51.924Z,94.02
2022-10-12T06:55:55.071Z,93.51
2022-10-12T06:56:59.027Z,92.99
2022-10-12T06:58:02.007Z,93.17
2022-10-12T06:59:06.077Z,93.38
2022-10-12T07:00:10.352Z,93.44
2022-10-12T07:01:14.578Z,94.15
2022-10-12T07:02:19.045Z,94.05
2022-10-12T07:03:23.016Z,94.21
2022-10-12T07:04:25.995Z,94.09
2022-10-12T07:05:29.957Z,94.12
2022-10-12T07:06:34.577Z,93.41
2022-10-12T07:07:38.246Z,93.97
2022-10-12T07:08:43.157Z,94.22
2022-10-12T07:09:46.124Z,93.51
2022-10-12T07:10:50.235Z,93.78
2022-10-12T07:11:53.224Z,92.84
2022-10-12T07:12:57.419Z,92.32
2022-10-12T07:14:00.326Z,92.53
2022-10-12T07:15:04.438Z,92.59
2022-10-12T07:16:08.304Z,92.57
2022-10-12T07:17:12.354Z,92.80
2022-10-12T07:18:16.725Z,92.46
2022-10-12T07:19:21.052Z,91.03
2022-10-12T07:20:25.345Z,90.71
2022-10-12T07:21:29.424Z,91.17
2022-10-12T07:22:32.545Z,90.81
2022-10-12T07:23:42.407Z,90.90
2022-10-12T07:24:48.394Z,91.26
2022-10-12T07:25:52.646Z,90.95
2022-10-12T07:26:55.718Z,90.97
2022-10-12T07:27:59.742Z,90.64
2022-10-12T07:29:03.805Z,91.45
2022-10-12T07:30:08.056Z,90.68
2022-10-12T07:31:12.316Z,90.49
2022-10-12T07:32:15.336Z,90.34
2022-10-12T07:33:21.179Z,89.97
2022-10-12T07:34:24.096Z,89.06
2022-10-12T07:35:28.115Z,88.99
2022-10-12T07:36:54.575Z,87.99
2022-10-12T07:37:56.077Z,87.66
2022-10-12T07:38:59.025Z,88.40
2022-10-12T07:40:03.197Z,87.81
2022-10-12T07:41:06.417Z,87.29
2022-10-12T07:42:11.916Z,86.64
2022-10-12T07:43:16.755Z,86.46
2022-10-12T07:44:21.229Z,87.20
2022-10-12T07:45:24.158Z,86.36
2022-10-12T07:46:28.270Z,86.40
2022-10-12T07:47:31.208Z,86.67
2022-10-12T07:48:36.715Z,86.12
2022-10-12T07:49:39.641Z,85.98
2022-10-12T07:50:43.599Z,85.98
2022-10-12T07:51:47.580Z,85.43
2022-10-12T07:52:51.976Z,85.41
2022-10-12T07:53:56.084Z,85.45
2022-10-12T07:54:59.176Z,85.32
2022-10-12T07:56:03.617Z,85.09
2022-10-12T07:57:08.778Z,85.05
2022-10-12T07:58:13.255Z,85.11
2022-10-12T07:59:17.323Z,85.54
2022-10-12T08:00:22.349Z,85.00
2022-10-12T08:01:28.026Z,84.98
2022-10-12T08:02:31.387Z,85.23
2022-10-12T08:03:36.935Z,84.98
2022-10-12T08:04:40.887Z,85.11
2022-10-12T08:05:43.896Z,85.40
2022-10-12T08:06:48.011Z,85.06
2022-10-12T08:07:52.334Z,84.88
2022-10-12T08:08:56.634Z,84.62
2022-10-12T08:10:00.644Z,85.11
2022-10-12T08:11:03.914Z,84.70
2022-10-12T08:12:08.533Z,84.96
2022-10-12T08:13:12.502Z,85.02
2022-10-12T08:14:17.384Z,84.83
2022-10-12T08:15:20.534Z,84.92
2022-10-12T08:16:25.323Z,84.91
2022-10-12T08:17:29.344Z,85.38
2022-10-12T08:18:33.567Z,84.86
2022-10-12T08:19:38.966Z,84.99
2022-10-12T08:20:42.925Z,85.06
2022-10-12T08:21:47.013Z,85.26
2022-10-12T08:22:50.020Z,85.14
2022-10-12T08:23:54.058Z,84.89
2022-10-12T08:24:58.044Z,85.02
2022-10-12T08:26:01.284Z,84.93
2022-10-12T08:27:05.388Z,84.39
2022-10-12T08:28:08.375Z,84.75
2022-10-12T08:29:12.645Z,84.63
2022-10-12T08:30:15.747Z,84.74
2022-10-12T08:31:19.803Z,84.65
2022-10-12T08:32:22.894Z,84.58
2022-10-12T08:33:30.068Z,84.82
2022-10-12T08:34:34.743Z,84.89
2022-10-12T08:35:41.185Z,84.61
2022-10-12T08:36:45.208Z,84.52
2022-10-12T08:37:48.307Z,84.20
2022-10-12T08:38:54.247Z,83.97
2022-10-12T08:40:00.895Z,84.03
2022-10-12T08:41:19.251Z,84.09
2022-10-12T08:42:37.759Z,83.96
2022-10-12T08:43:54.273Z,84.01
2022-10-12T08:45:21.730Z,83.58
2022-10-12T08:46:26.414Z,83.20
2022-10-12T08:47:36.547Z,83.74
2022-10-12T08:48:47.088Z,83.81
2022-10-12T08:49:51.675Z,83.00
2022-10-12T08:50:58.493Z,83.06
2022-10-12T08:52:06.518Z,82.48
2022-10-12T08:53:15.732Z,82.97
2022-10-12T08:54:22.557Z,82.14
2022-10-12T08:55:33.965Z,82.42
2022-10-12T08:56:40.417Z,81.43
2022-10-12T08:57:47.607Z,81.58
2022-10-12T08:58:54.913Z,80.92
2022-10-12T08:59:59.370Z,80.18
2022-10-12T09:01:16.542Z,79.71
2022-10-12T09:02:40.024Z,79.80
2022-10-12T09:03:51.034Z,79.13
2022-10-12T09:04:58.585Z,79.15
2022-10-12T09:06:10.797Z,79.24
2022-10-12T09:07:17.893Z,79.18
2022-10-12T09:08:29.762Z,79.07
2022-10-12T09:09:44.197Z,79.28
2022-10-12T09:10:53.265Z,79.29
2022-10-12T09:12:06.152Z,79.02
2022-10-12T09:13:18.792Z,78.82
2022-10-12T09:14:24.616Z,78.63
2022-10-12T09:15:30.960Z,78.50
2022-10-12T09:16:38.314Z,78.28
2022-10-12T09:17:44.985Z,77.87
2022-10-12T09:18:52.721Z,77.85
2022-10-12T09:20:03.236Z,77.88
2022-10-12T09:21:11.764Z,77.49
2022-10-12T09:22:19.386Z,76.43
2022-10-12T09:23:26.545Z,76.15
2022-10-12T09:24:32.555Z,75.71
2022-10-12T09:25:36.544Z,74.56
2022-10-12T09:26:40.724Z,74.74
2022-10-12T09:27:46.120Z,74.10
2022-10-12T09:28:53.529Z,73.73
2022-10-12T09:30:01.105Z,73.31
2022-10-12T09:31:12.664Z,72.77
2022-10-12T09:32:37.807Z,71.96
2022-10-12T09:33:45.574Z,71.94
2022-10-12T09:34:50.375Z,72.22
2022-10-12T09:35:54.664Z,71.46
2022-10-12T09:37:00.222Z,70.91
2022-10-12T09:38:04.281Z,70.16
2022-10-12T09:39:13.664Z,69.52
2022-10-12T09:40:23.198Z,69.40
2022-10-12T09:41:29.019Z,69.79
2022-10-12T09:42:32.784Z,69.47
2022-10-12T09:43:36.824Z,69.49
2022-10-12T09:44:41.704Z,69.06
2022-10-12T09:45:45.825Z,69.50
2022-10-12T09:46:52.895Z,69.09
2022-10-12T09:48:14.809Z,68.29
2022-10-12T09:49:19.453Z,68.51
2022-10-12T09:50:40.721Z,68.01
2022-10-12T09:51:44.985Z,67.85
2022-10-12T09:52:50.588Z,67.95
2022-10-12T09:53:57.655Z,67.33
2022-10-12T09:55:05.421Z,67.11
2022-10-12T09:56:14.648Z,67.24
2022-10-12T09:57:20.456Z,66.95
2022-10-12T09:58:24.865Z,67.27
2022-10-12T09:59:30.884Z,66.69
2022-10-12T10:00:35.119Z,66.44
2022-10-12T10:01:40.392Z,67.04
2022-10-12T10:02:49.352Z,66.72
2022-10-12T10:04:09.984Z,66.11
2022-10-12T10:05:25.344Z,66.81
2022-10-12T10:06:28.362Z,66.67
2022-10-12T10:07:34.496Z,67.27
2022-10-12T10:08:43.305Z,67.20
2022-10-12T10:09:48.207Z,66.99
2022-10-12T10:10:52.775Z,66.09
2022-10-12T10:11:57.162Z,66.19
2022-10-12T10:13:03.955Z,66.35
2022-10-12T10:14:07.962Z,66.37
2022-10-12T10:15:19.996Z,65.91
2022-10-12T10:16:26.226Z,65.65
2022-10-12T10:17:32.945Z,66.63
2022-10-12T10:18:37.796Z,66.14
2022-10-12T10:19:41.831Z,65.62
2022-10-12T10:20:51.313Z,65.03
2022-10-12T10:21:56.584Z,64.96
2022-10-12T10:23:00.278Z,65.06
2022-10-12T10:24:07.365Z,64.69
2022-10-12T10:25:20.774Z,63.99
2022-10-12T10:26:25.489Z,63.71
2022-10-12T10:27:34.540Z,63.82
2022-10-12T10:28:40.709Z,64.05
2022-10-12T10:29:45.659Z,63.75
2022-10-12T10:30:58.850Z,63.72
2022-10-12T10:32:12.824Z,63.82
2022-10-12T10:33:19.047Z,63.95
2022-10-12T10:34:24.295Z,63.91
2022-10-12T10:35:27.425Z,63.64
2022-10-12T10:36:31.794Z,63.43
2022-10-12T10:37:35.743Z,63.33
2022-10-12T10:38:55.525Z,63.16
2022-10-12T10:40:01.636Z,63.58
2022-10-12T10:41:08.005Z,63.57
2022-10-12T10:42:11.957Z,63.42
2022-10-12T10:43:28.863Z,63.58
2022-10-12T10:44:33.251Z,63.96
2022-10-12T10:45:49.905Z,64.04
2022-10-12T10:46:54.915Z,63.75
2022-10-12T10:48:01.512Z,63.63
2022-10-12T10:49:08.125Z,63.96
2022-10-12T10:50:26.004Z,64.13
2022-10-12T10:51:48.533Z,64.19
2022-10-12T10:52:56.963Z,65.00
2022-10-12T10:54:15.091Z,64.70
2022-10-12T10:55:24.253Z,64.86
2022-10-12T10:56:31.406Z,64.84
2022-10-12T10:57:35.263Z,64.70
2022-10-12T10:58:42.804Z,64.07
2022-10-12T10:59:50.654Z,63.89
2022-10-12T11:00:57.755Z,63.88
2022-10-12T11:02:04.101Z,63.39
2022-10-12T11:03:12.937Z,63.68
2022-10-12T11:04:20.746Z,63.30
2022-10-12T11:05:28.974Z,63.33
2022-10-12T11:06:37.774Z,63.64
2022-10-12T11:07:44.729Z,63.52
2022-10-12T11:08:51.319Z,63.61
2022-10-12T11:09:55.987Z,63.84
2022-10-12T11:11:04.629Z,64.26
2022-10-12T11:12:12.544Z,63.97
2022-10-12T11:13:18.277Z,63.86
2022-10-12T11:14:25.263Z,63.85
2022-10-12T11:15:32.757Z,64.14
2022-10-12T11:16:39.387Z,64.07
2022-10-12T11:17:46.822Z,64.24
2022-10-12T11:18:54.042Z,64.17
2022-10-12T11:20:07.522Z,63.70
2022-10-12T11:21:14.923Z,63.36
2022-10-12T11:22:20.838Z,63.17
2022-10-12T11:23:33.566Z,63.07
2022-10-12T11:24:42.509Z,62.55
2022-10-12T11:26:05.057Z,61.60
2022-10-12T11:27:13.413Z,61.95
2022-10-12T11:28:16.976Z,62.17
2022-10-12T11:29:21.680Z,62.02
2022-10-12T11:30:27.313Z,60.97
2022-10-12T11:31:34.243Z,60.39
2022-10-12T11:32:38.897Z,60.07
2022-10-12T11:33:44.645Z,59.45
2022-10-12T11:34:53.123Z,59.32
2022-10-12T11:35:59.169Z,58.54
2022-10-12T11:37:20.640Z,58.37
2022-10-12T11:38:28.844Z,58.50
2022-10-12T11:39:36.406Z,58.39
2022-10-12T11:41:31.047Z,58.32
2022-10-12T11:42:22.700Z,58.39
2022-10-12T11:43:29.945Z,58.24
2022-10-12T11:44:39.315Z,57.92
2022-10-12T11:45:47.441Z,57.77
2022-10-12T11:46:56.685Z,57.64
2022-10-12T11:48:02.707Z,57.50
2022-10-12T11:49:10.806Z,58.24
2022-10-12T11:50:25.335Z,57.65
2022-10-12T11:51:29.465Z,58.54
2022-10-12T11:52:39.138Z,57.89
2022-10-12T11:53:49.914Z,57.70
2022-10-12T11:54:59.096Z,57.68
2022-10-12T11:56:09.092Z,57.77
2022-10-12T11:57:18.015Z,56.68
2022-10-12T11:58:36.494Z,56.72
2022-10-12T11:59:50.144Z,56.60
2022-10-12T12:01:29.693Z,55.37
2022-10-12T12:02:35.755Z,55.40
2022-10-12T12:04:17.138Z,55.60
2022-10-12T12:05:25.556Z,55.58
2022-10-12T12:06:46.346Z,54.35
2022-10-12T12:07:51.340Z,55.22
2022-10-12T12:08:58.315Z,55.14
2022-10-12T12:10:02.257Z,54.93
2022-10-12T12:11:18.445Z,54.85
2022-10-12T12:12:24.695Z,55.31
2022-10-12T12:13:28.775Z,55.05
2022-10-12T12:15:04.823Z,52.90
2022-10-12T12:16:35.791Z,52.31
2022-10-12T12:17:39.795Z,54.10
2022-10-12T12:19:19.016Z,53.81
2022-10-12T12:20:55.924Z,54.38
2022-10-12T12:22:19.912Z,54.31
2022-10-12T12:23:27.124Z,55.07
2022-10-12T12:24:30.021Z,55.19
2022-10-12T12:25:34.534Z,55.10
2022-10-12T12:26:37.615Z,55.37
2022-10-12T12:27:46.250Z,55.65
2022-10-12T12:28:50.861Z,55.38
2022-10-12T12:29:55.353Z,55.84
2022-10-12T12:31:01.716Z,55.83
2022-10-12T12:32:04.684Z,55.63
2022-10-12T12:33:29.463Z,55.65
2022-10-12T12:34:32.486Z,55.84
2022-10-12T12:35:39.707Z,55.69
2022-10-12T12:36:45.099Z,56.19
2022-10-12T12:37:49.790Z,56.40
2022-10-12T12:38:54.094Z,56.48
2022-10-12T12:39:58.634Z,56.75
2022-10-12T12:41:05.474Z,56.39
2022-10-12T12:42:10.645Z,55.98
2022-10-12T12:43:34.417Z,54.53
2022-10-12T12:44:41.882Z,54.28
2022-10-12T12:45:54.855Z,53.78
2022-10-12T12:49:00.747Z,52.00
2022-10-12T12:50:26.776Z,52.25
2022-10-12T12:51:40.580Z,49.56
2022-10-12T12:52:44.802Z,50.95
2022-10-12T12:53:50.175Z,50.60
2022-10-12T12:55:20.155Z,48.94
2022-10-12T12:56:26.595Z,50.35
2022-10-12T12:57:39.895Z,50.36
2022-10-12T12:58:58.393Z,49.27
2022-10-12T13:00:14.409Z,49.53
2022-10-12T13:01:42.889Z,48.89
2022-10-12T13:03:19.181Z,48.38
2022-10-12T13:04:41.436Z,48.08
2022-10-12T13:06:22.316Z,46.36
2022-10-12T13:07:41.194Z,48.72
2022-10-12T13:08:56.364Z,48.72
2022-10-12T13:10:11.367Z,48.62
2022-10-12T13:11:41.954Z,48.17
2022-10-12T13:13:03.228Z,49.43
2022-10-12T13:14:20.095Z,49.39
2022-10-12T13:15:31.362Z,49.24
2022-10-12T13:18:47.030Z,49.45
2022-10-12T13:19:51.976Z,50.30
2022-10-12T13:20:56.315Z,50.30
2022-10-12T13:22:05.434Z,50.28
2022-10-12T13:23:13.486Z,50.71
2022-10-12T13:24:24.904Z,50.85
2022-10-12T13:25:31.835Z,51.13
2022-10-12T13:26:36.971Z,51.35
2022-10-12T13:27:43.227Z,51.64
2022-10-12T13:28:47.515Z,51.91
2022-10-12T13:29:57.133Z,52.12
2022-10-12T13:31:03.055Z,52.47
2022-10-12T13:32:25.307Z,52.74
2022-10-12T13:33:32.534Z,53.23
2022-10-12T13:34:40.115Z,53.64
2022-10-12T13:35:47.835Z,53.53
2022-10-12T13:36:55.523Z,53.00
2022-10-12T13:38:04.579Z,52.85
2022-10-12T13:39:17.163Z,52.83
2022-10-12T13:40:31.327Z,53.00
2022-10-12T13:41:36.318Z,53.14
2022-10-12T13:42:39.484Z,53.25
2022-10-12T13:43:46.574Z,53.30
2022-10-12T13:44:52.592Z,53.28
2022-10-12T13:45:56.150Z,53.28
2022-10-12T13:47:04.431Z,53.48
2022-10-12T13:48:25.631Z,53.64
2022-10-12T13:49:44.434Z,53.54
2022-10-12T13:50:54.648Z,53.61
2022-10-12T13:52:00.830Z,53.62
2022-10-12T13:53:12.691Z,53.95
2022-10-12T13:54:19.156Z,54.13
2022-10-12T13:55:26.954Z,53.80
2022-10-12T13:56:31.584Z,53.60
2022-10-12T13:57:40.897Z,52.89
2022-10-12T13:58:44.294Z,52.56
2022-10-12T13:59:49.145Z,52.60
2022-10-12T14:00:53.539Z,52.58
2022-10-12T14:02:01.003Z,52.49
2022-10-12T14:03:07.616Z,52.47
2022-10-12T14:04:11.514Z,52.58
2022-10-12T14:05:18.494Z,51.98
2022-10-12T14:06:28.457Z,51.72
2022-10-12T14:07:35.130Z,51.60
2022-10-12T14:08:38.423Z,51.61
2022-10-12T14:09:45.604Z,51.32
2022-10-12T14:10:49.774Z,51.25
2022-10-12T14:11:55.066Z,50.73
2022-10-12T14:12:58.257Z,50.47
2022-10-12T14:14:02.912Z,50.17
2022-10-12T14:15:07.427Z,50.35
2022-10-12T14:16:14.490Z,50.16
2022-10-12T14:17:19.564Z,49.57
2022-10-12T14:18:36.105Z,49.63
2022-10-12T14:19:47.051Z,49.53
2022-10-12T14:20:51.338Z,49.85
2022-10-12T14:21:57.135Z,49.68
2022-10-12T14:23:02.407Z,49.78
2022-10-12T14:24:09.029Z,49.59